Time;durP1;ratioP1;P1;durP2;ratioP2;P2;SDS_P1;SDS_P2;PMS_P1;PMS_P2;Temp;Humidity;BMP_temperature;BMP_pressure;BME280_temperature;BME280_humidity;BME280_pressure;Samples;Min_cycle;Max_cycle;Signal;HPM_P1;HPM_P2
2023/09/07 00:00:48;;;;;;;23.48;21.33;;;22.90;99.90;;;;;;5028131;28;20562;-63
2023/09/07 00:03:15;;;;;;;23.23;21.33;;;22.80;99.90;;;;;;5027054;28;20132;-62
2023/09/07 00:05:41;;;;;;;23.55;21.55;;;22.70;99.90;;;;;;5028233;28;20037;-62
2023/09/07 00:08:07;;;;;;;23.95;21.95;;;22.90;71.20;;;;;;5027422;28;20046;-62
2023/09/07 00:10:36;;;;;;;24.33;22.05;;;22.70;44.00;;;;;;5029907;28;20047;-62
2023/09/07 00:13:02;;;;;;;24.95;22.95;;;22.70;43.40;;;;;;5028202;28;20440;-62
2023/09/07 00:15:29;;;;;;;26.02;23.92;;;22.70;60.00;;;;;;5028466;28;20046;-62
2023/09/07 00:17:55;;;;;;;25.65;23.50;;;22.70;64.50;;;;;;5028713;28;20034;-63
2023/09/07 00:20:21;;;;;;;24.85;22.75;;;22.50;79.50;;;;;;5028037;28;20044;-62
2023/09/07 00:22:47;;;;;;;24.35;22.25;;;22.50;99.90;;;;;;5027043;28;20045;-63
2023/09/07 00:25:13;;;;;;;24.77;22.60;;;22.50;99.90;;;;;;5028035;28;20045;-63
2023/09/07 00:27:39;;;;;;;24.48;22.58;;;22.70;99.90;;;;;;5022879;28;20376;-62
2023/09/07 00:30:05;;;;;;;23.88;21.85;;;22.60;99.90;;;;;;5023756;28;20091;-62
2023/09/07 00:32:33;;;;;;;23.73;21.73;;;22.70;99.90;;;;;;5024582;28;20463;-62
2023/09/07 00:34:59;;;;;;;24.25;22.05;;;22.60;90.00;;;;;;5031053;28;20064;-64
2023/09/07 00:37:24;;;;;;;25.13;23.13;;;22.70;40.60;;;;;;5028879;28;20041;-62
2023/09/07 00:39:50;;;;;;;26.38;24.27;;;22.50;9.90;;;;;;5045661;28;20053;-62
2023/09/07 00:42:16;;;;;;;26.83;24.52;;;22.40;18.80;;;;;;5026576;28;20515;-62
2023/09/07 00:44:41;;;;;;;26.98;24.60;;;22.30;80.70;;;;;;5027452;28;20260;-62
2023/09/07 00:47:07;;;;;;;27.60;25.40;;;22.20;99.90;;;;;;5028850;28;20514;-66
2023/09/07 00:49:32;;;;;;;27.67;25.48;;;22.10;99.90;;;;;;5030209;28;20073;-64
2023/09/07 00:51:58;;;;;;;28.50;26.23;;;22.10;99.90;;;;;;5029064;28;20045;-64
2023/09/07 00:54:24;;;;;;;29.92;27.33;;;22.50;1.00;;;;;;5029369;28;20040;-62
2023/09/07 00:56:49;;;;;;;28.73;26.42;;;22.10;1.00;;;;;;5030015;28;20033;-61
2023/09/07 00:59:15;;;;;;;28.60;26.05;;;22.10;1.00;;;;;;5029130;28;20046;-62
2023/09/07 01:01:42;;;;;;;27.95;25.63;;;22.00;74.20;;;;;;5031280;28;20069;-62
2023/09/07 01:04:08;;;;;;;30.13;26.77;;;22.10;99.90;;;;;;5026755;28;20500;-62
2023/09/07 01:06:39;;;;;;;28.30;26.00;;;21.90;99.90;;;;;;5031485;28;20047;-62
2023/09/07 01:09:12;;;;;;;28.70;26.20;;;22.00;99.90;;;;;;5032436;28;20041;-62
2023/09/07 01:11:38;;;;;;;28.80;26.42;;;21.80;99.90;;;;;;5030592;28;20340;-63
2023/09/07 01:14:04;;;;;;;29.75;26.80;;;21.70;1.00;;;;;;5029571;28;20068;-62
2023/09/07 01:16:33;;;;;;;29.40;26.80;;;21.80;1.00;;;;;;5026176;28;20042;-62
2023/09/07 01:19:00;;;;;;;30.17;27.42;;;21.70;1.00;;;;;;5031870;28;20048;-62
2023/09/07 01:21:27;;;;;;;29.10;26.70;;;22.00;90.50;;;;;;5037456;28;21040;-63
2023/09/07 01:23:54;;;;;;;29.15;26.52;;;21.80;99.90;;;;;;5038500;28;20071;-63
2023/09/07 01:26:20;;;;;;;28.77;26.23;;;21.80;99.90;;;;;;5030746;28;20041;-62
2023/09/07 01:28:46;;;;;;;29.30;26.88;;;21.90;99.90;;;;;;5032085;28;20041;-62
2023/09/07 01:31:12;;;;;;;29.42;26.92;;;21.90;99.90;;;;;;5030650;28;20049;-63
2023/09/07 01:33:37;;;;;;;29.65;27.23;;;21.80;99.90;;;;;;5032243;28;20072;-62
2023/09/07 01:36:03;;;;;;;30.02;27.50;;;21.70;1.00;;;;;;5030550;28;20461;-63
2023/09/07 01:38:29;;;;;;;30.13;27.48;;;21.70;1.00;;;;;;5036126;28;20407;-61
2023/09/07 01:40:55;;;;;;;29.40;26.98;;;21.60;1.00;;;;;;5030808;28;20099;-63
2023/09/07 01:43:20;;;;;;;28.33;25.92;;;21.70;37.60;;;;;;5029193;28;20100;-62
2023/09/07 01:45:46;;;;;;;29.13;26.58;;;21.50;93.10;;;;;;5036107;28;20045;-62
2023/09/07 01:48:13;;;;;;;28.42;25.92;;;21.70;99.90;;;;;;5034921;28;20069;-62
2023/09/07 01:50:39;;;;;;;28.05;25.75;;;21.60;99.90;;;;;;5030134;28;20136;-62
2023/09/07 01:53:04;;;;;;;28.70;26.08;;;21.80;99.90;;;;;;5031393;28;20124;-62
2023/09/07 01:55:33;;;;;;;29.30;26.75;;;21.90;99.90;;;;;;5030796;28;20033;-62
2023/09/07 01:57:58;;;;;;;27.85;25.63;;;21.80;99.90;;;;;;5013353;28;20124;-62
2023/09/07 02:00:24;;;;;;;27.38;25.10;;;21.70;99.90;;;;;;5031564;28;20144;-61
2023/09/07 02:02:50;;;;;;;28.20;25.75;;;21.90;99.90;;;;;;5028199;28;20058;-62
2023/09/07 02:05:16;;;;;;;27.98;24.92;;;21.80;99.90;;;;;;5026889;28;20378;-62
2023/09/07 02:07:42;;;;;;;29.05;26.52;;;21.80;99.90;;;;;;5031209;28;20038;-62
2023/09/07 02:10:08;;;;;;;28.52;26.17;;;21.80;47.60;;;;;;5031786;28;20072;-62
2023/09/07 02:12:34;;;;;;;28.30;25.85;;;21.80;1.00;;;;;;5028949;28;20080;-65
2023/09/07 02:15:02;;;;;;;29.17;26.48;;;22.10;1.00;;;;;;5028977;28;20041;-65
2023/09/07 02:17:28;;;;;;;29.27;26.73;;;21.70;1.00;;;;;;5032093;28;20407;-65
2023/09/07 02:19:53;;;;;;;28.85;26.45;;;21.80;1.00;;;;;;5030617;28;20130;-65
2023/09/07 02:22:19;;;;;;;27.90;25.38;;;21.70;1.00;;;;;;5029663;28;20145;-65
2023/09/07 02:24:45;;;;;;;29.08;26.67;;;21.70;1.00;;;;;;5032561;28;20463;-65
2023/09/07 02:27:10;;;;;;;27.83;25.35;;;21.70;1.00;;;;;;5030784;28;20040;-65
2023/09/07 02:29:36;;;;;;;28.15;25.40;;;21.70;99.90;;;;;;5030289;28;20408;-65
2023/09/07 02:32:02;;;;;;;28.83;26.48;;;21.80;99.90;;;;;;5029141;28;20106;-65
2023/09/07 02:34:29;;;;;;;28.40;25.85;;;21.60;99.90;;;;;;5026572;28;20037;-65
2023/09/07 02:36:56;;;;;;;29.70;27.10;;;21.70;99.90;;;;;;5025898;28;20049;-65
2023/09/07 02:39:26;;;;;;;29.08;26.48;;;21.50;99.90;;;;;;5021998;28;20064;-65
2023/09/07 02:41:51;;;;;;;28.75;26.13;;;21.60;99.90;;;;;;5031576;28;20414;-65
2023/09/07 02:44:17;;;;;;;28.25;26.00;;;21.50;99.90;;;;;;5028445;28;20424;-65
2023/09/07 02:46:43;;;;;;;28.83;26.35;;;21.30;99.90;;;;;;5038841;28;20479;-65
2023/09/07 02:49:08;;;;;;;28.67;26.27;;;21.50;99.90;;;;;;5030663;28;20158;-65
2023/09/07 02:51:34;;;;;;;28.90;26.60;;;21.40;99.90;;;;;;5029490;28;20435;-65
2023/09/07 02:54:02;;;;;;;30.15;27.27;;;21.30;99.90;;;;;;5034097;28;20040;-65
2023/09/07 02:56:28;;;;;;;29.63;26.60;;;21.30;99.90;;;;;;5026954;28;20078;-65
2023/09/07 02:58:53;;;;;;;29.45;27.00;;;21.30;99.90;;;;;;5031475;28;20052;-65
2023/09/07 03:01:20;;;;;;;28.60;26.27;;;21.30;1.00;;;;;;5030847;28;20077;-65
2023/09/07 03:03:46;;;;;;;29.02;26.42;;;21.20;1.00;;;;;;5029707;28;20495;-65
2023/09/07 03:06:13;;;;;;;28.05;25.65;;;21.20;1.00;;;;;;5029009;28;20037;-65
2023/09/07 03:08:40;;;;;;;29.60;27.13;;;21.30;1.00;;;;;;5028956;28;20087;-65
2023/09/07 03:11:07;;;;;;;27.80;25.58;;;21.30;1.00;;;;;;5029767;28;20048;-65
2023/09/07 03:13:32;;;;;;;27.50;25.05;;;21.50;1.00;;;;;;5032458;28;20124;-65
2023/09/07 03:15:59;;;;;;;28.52;26.10;;;21.50;1.00;;;;;;5023988;28;20651;-65
2023/09/07 03:18:25;;;;;;;27.27;24.95;;;21.40;99.90;;;;;;5031058;28;20033;-65
2023/09/07 03:20:53;;;;;;;27.52;25.20;;;21.40;99.90;;;;;;5027893;28;20056;-65
2023/09/07 03:23:18;;;;;;;28.23;25.67;;;21.40;99.90;;;;;;5028651;28;20403;-65
2023/09/07 03:25:44;;;;;;;27.77;25.48;;;21.40;99.90;;;;;;5028271;28;20041;-66
2023/09/07 03:28:09;;;;;;;26.60;24.58;;;21.40;99.90;;;;;;5029725;28;20030;-65
2023/09/07 03:30:35;;;;;;;28.38;25.50;;;21.40;99.90;;;;;;5031557;28;20087;-65
2023/09/07 03:33:01;;;;;;;28.35;25.90;;;21.40;99.90;;;;;;5027598;28;20484;-66
2023/09/07 03:35:27;;;;;;;27.17;24.77;;;21.40;99.90;;;;;;5026897;28;20085;-65
2023/09/07 03:37:52;;;;;;;28.02;25.58;;;21.50;99.90;;;;;;5028386;28;20507;-65
2023/09/07 03:40:18;;;;;;;27.00;24.65;;;21.40;99.90;;;;;;5028469;28;20069;-65
2023/09/07 03:42:45;;;;;;;28.13;25.73;;;21.30;99.90;;;;;;5025074;28;20037;-65
2023/09/07 03:45:11;;;;;;;28.88;26.10;;;21.30;99.90;;;;;;5027875;28;20452;-65
2023/09/07 03:47:37;;;;;;;28.63;26.13;;;21.20;99.90;;;;;;5028612;28;20041;-65
2023/09/07 03:50:03;;;;;;;28.92;26.42;;;21.20;99.90;;;;;;5028153;28;20407;-64
2023/09/07 03:52:28;;;;;;;30.77;28.00;;;21.10;99.90;;;;;;5030982;28;20046;-65
2023/09/07 03:54:57;;;;;;;29.88;27.15;;;21.10;1.00;;;;;;5028284;28;20094;-65
2023/09/07 03:57:24;;;;;;;28.08;25.77;;;21.00;1.00;;;;;;5027598;28;20495;-65
2023/09/07 03:59:50;;;;;;;29.42;26.65;;;20.90;1.00;;;;;;5028392;28;20107;-65
2023/09/07 04:02:17;;;;;;;30.23;27.60;;;21.00;99.30;;;;;;5028105;28;20049;-64
2023/09/07 04:04:48;;;;;;;30.38;27.70;;;20.80;99.90;;;;;;5027025;28;20479;-65
2023/09/07 04:07:13;;;;;;;30.08;27.67;;;20.90;99.90;;;;;;5025785;28;20115;-65
2023/09/07 04:09:39;;;;;;;31.45;28.63;;;20.70;99.90;;;;;;5029087;28;20030;-65
2023/09/07 04:12:06;;;;;;;30.98;28.35;;;20.80;1.00;;;;;;5027873;28;20055;-66
2023/09/07 04:14:31;;;;;;;31.65;28.52;;;20.80;1.00;;;;;;5029973;28;20052;-64
2023/09/07 04:16:58;;;;;;;32.40;29.48;;;20.80;81.80;;;;;;5029825;28;20038;-64
2023/09/07 04:19:23;;;;;;;32.17;29.17;;;20.80;99.90;;;;;;5026340;28;20037;-66
2023/09/07 04:21:49;;;;;;;32.45;29.75;;;20.70;99.90;;;;;;5025689;28;20033;-65
2023/09/07 04:24:14;;;;;;;32.92;30.13;;;20.50;99.90;;;;;;5028419;28;20554;-65
2023/09/07 04:26:40;;;;;;;33.33;30.55;;;20.50;1.00;;;;;;5026473;28;20044;-65
2023/09/07 04:29:07;;;;;;;34.65;31.58;;;20.40;1.00;;;;;;5035231;28;20040;-64
2023/09/07 04:31:33;;;;;;;35.78;32.40;;;20.40;57.20;;;;;;5030276;28;20041;-65
2023/09/07 04:33:58;;;;;;;36.42;33.13;;;20.40;99.90;;;;;;5030093;28;20491;-62
2023/09/07 04:36:24;;;;;;;35.47;32.47;;;20.20;99.90;;;;;;5032904;28;20048;-62
2023/09/07 04:38:49;;;;;;;36.00;32.95;;;20.20;99.90;;;;;;5029558;28;20061;-62
2023/09/07 04:41:15;;;;;;;35.92;32.92;;;20.20;1.00;;;;;;5028317;28;20054;-61
2023/09/07 04:43:45;;;;;;;36.00;32.45;;;20.20;95.40;;;;;;5031783;28;20048;-62
2023/09/07 04:46:11;;;;;;;36.13;32.83;;;20.00;99.90;;;;;;5029701;28;21666;-64
2023/09/07 04:48:37;;;;;;;35.25;32.17;;;20.10;99.90;;;;;;5029821;28;20446;-61
2023/09/07 04:51:05;;;;;;;36.42;33.33;;;19.90;99.90;;;;;;5034048;28;20041;-62
2023/09/07 04:53:34;;;;;;;37.50;34.20;;;20.00;1.00;;;;;;5029929;28;20045;-62
2023/09/07 04:56:01;;;;;;;36.72;33.28;;;20.00;1.00;;;;;;5029346;28;20085;-63
2023/09/07 04:58:27;;;;;;;38.78;34.85;;;19.80;94.50;;;;;;5030087;28;20508;-62
2023/09/07 05:00:52;;;;;;;38.17;34.58;;;20.00;99.90;;;;;;5030416;28;20088;-62
2023/09/07 05:03:18;;;;;;;37.58;34.25;;;19.90;99.90;;;;;;5033175;28;20076;-61
2023/09/07 05:05:44;;;;;;;37.72;34.30;;;19.90;99.90;;;;;;5030252;28;20459;-63
2023/09/07 05:08:10;;;;;;;40.08;36.33;;;19.70;99.90;;;;;;5031437;28;20044;-62
2023/09/07 05:10:36;;;;;;;40.00;36.30;;;19.80;99.90;;;;;;5030135;28;20120;-62
2023/09/07 05:13:02;;;;;;;42.10;38.20;;;19.80;1.00;;;;;;5031234;28;20037;-65
2023/09/07 05:15:28;;;;;;;41.97;38.15;;;19.80;1.00;;;;;;5033408;28;20036;-61
2023/09/07 05:17:54;;;;;;;41.35;37.65;;;19.80;1.00;;;;;;5031159;28;20048;-62
2023/09/07 05:20:20;;;;;;;40.75;37.05;;;19.60;77.10;;;;;;5029696;28;20096;-62
2023/09/07 05:22:46;;;;;;;40.55;36.85;;;19.80;99.90;;;;;;5033498;28;20076;-62
2023/09/07 05:25:11;;;;;;;41.15;37.55;;;19.80;99.90;;;;;;5031489;28;20048;-62
2023/09/07 05:27:37;;;;;;;40.17;36.58;;;19.80;99.90;;;;;;5027074;28;20166;-61
2023/09/07 05:30:04;;;;;;;40.78;36.97;;;19.90;99.90;;;;;;5030521;28;20065;-62
2023/09/07 05:32:29;;;;;;;39.65;36.15;;;19.70;99.90;;;;;;5028963;28;20120;-63
2023/09/07 05:34:55;;;;;;;39.83;36.30;;;20.10;99.90;;;;;;5029528;28;20456;-62
2023/09/07 05:37:20;;;;;;;38.60;35.30;;;19.70;99.90;;;;;;5031537;28;20064;-61
2023/09/07 05:39:46;;;;;;;39.30;35.85;;;19.90;99.90;;;;;;5031285;28;20080;-63
2023/09/07 05:42:12;;;;;;;38.95;35.60;;;20.10;99.90;;;;;;5030101;28;20479;-61
2023/09/07 05:44:38;;;;;;;38.40;35.03;;;20.00;99.90;;;;;;5029795;28;20505;-63
2023/09/07 05:47:04;;;;;;;39.00;34.95;;;19.90;99.90;;;;;;5028462;28;20148;-62
2023/09/07 05:49:30;;;;;;;39.28;35.38;;;20.20;99.90;;;;;;5030939;28;20034;-62
2023/09/07 05:51:56;;;;;;;38.00;34.67;;;20.10;99.90;;;;;;5030931;28;20051;-63
2023/09/07 05:54:22;;;;;;;37.00;33.83;;;20.10;99.90;;;;;;5046538;28;20065;-63
2023/09/07 05:56:47;;;;;;;37.70;34.28;;;20.30;99.90;;;;;;5030128;28;20037;-63
2023/09/07 05:59:13;;;;;;;37.67;34.33;;;20.20;99.90;;;;;;5032656;28;20833;-62
2023/09/07 06:01:39;;;;;;;40.75;36.95;;;20.10;99.90;;;;;;5029345;28;20076;-62
2023/09/07 06:04:05;;;;;;;39.38;35.97;;;20.40;99.90;;;;;;5028374;28;20034;-62
2023/09/07 06:06:31;;;;;;;39.88;36.35;;;20.30;99.90;;;;;;5028974;28;20555;-62
2023/09/07 06:08:58;;;;;;;38.67;35.17;;;20.10;99.90;;;;;;5029732;28;20108;-62
2023/09/07 06:11:24;;;;;;;39.03;35.40;;;20.40;99.90;;;;;;5028811;28;20034;-63
2023/09/07 06:13:50;;;;;;;36.85;33.67;;;20.30;99.90;;;;;;5032312;28;20050;-62
2023/09/07 06:16:16;;;;;;;35.47;32.55;;;20.50;99.90;;;;;;5028129;28;20132;-62
2023/09/07 06:18:41;;;;;;;35.95;32.45;;;20.50;99.90;;;;;;5028213;28;20037;-62
2023/09/07 06:21:07;;;;;;;35.55;32.13;;;20.60;99.90;;;;;;5041987;28;20072;-61
2023/09/07 06:23:32;;;;;;;32.17;29.58;;;20.50;99.90;;;;;;5029122;28;20479;-62
2023/09/07 06:25:59;;;;;;;35.72;31.63;;;20.70;99.90;;;;;;5029692;28;20110;-62
2023/09/07 06:28:25;;;;;;;33.53;30.67;;;20.80;99.90;;;;;;5026740;28;20036;-62
2023/09/07 06:30:50;;;;;;;33.28;30.30;;;20.90;99.90;;;;;;5024844;28;20048;-63
2023/09/07 06:33:17;;;;;;;32.20;29.23;;;20.90;96.70;;;;;;5024405;28;20411;-62
2023/09/07 06:35:42;;;;;;;30.02;27.17;;;21.40;1.00;;;;;;5027333;28;20053;-63
2023/09/07 06:38:08;;;;;;;32.05;29.17;;;21.10;99.90;;;;;;5030923;28;20112;-62
2023/09/07 06:40:33;;;;;;;30.67;28.27;;;21.30;99.90;;;;;;5034478;28;20033;-62
2023/09/07 06:43:00;;;;;;;31.80;28.98;;;21.30;60.50;;;;;;5028347;28;20046;-61
2023/09/07 06:45:25;;;;;;;30.45;27.63;;;21.40;1.00;;;;;;5032037;28;20047;-62
2023/09/07 06:47:51;;;;;;;29.65;27.13;;;21.60;99.90;;;;;;5030642;28;20041;-63
2023/09/07 06:50:16;;;;;;;29.38;26.80;;;21.50;24.70;;;;;;5026955;28;20034;-62
2023/09/07 06:52:42;;;;;;;30.02;27.33;;;21.60;1.00;;;;;;5032904;28;20128;-65
2023/09/07 06:55:08;;;;;;;30.17;27.38;;;21.80;99.90;;;;;;5029650;28;20051;-65
2023/09/07 06:57:33;;;;;;;29.00;26.50;;;21.90;25.00;;;;;;5027411;28;20037;-67
2023/09/07 06:59:59;;;;;;;28.90;26.40;;;22.00;1.00;;;;;;5025507;28;20053;-70
2023/09/07 07:02:25;;;;;;;30.10;27.33;;;22.10;99.90;;;;;;5026137;28;20055;-67
2023/09/07 07:04:51;;;;;;;31.27;28.50;;;22.10;99.90;;;;;;5019860;28;20076;-67
2023/09/07 07:07:17;;;;;;;31.75;28.88;;;22.20;99.90;;;;;;5028269;28;20045;-68
2023/09/07 07:09:43;;;;;;;29.38;26.73;;;22.20;1.00;;;;;;5026574;28;20419;-66
2023/09/07 07:12:08;;;;;;;27.52;25.17;;;22.30;1.00;;;;;;5027587;28;20067;-66
2023/09/07 07:14:34;;;;;;;28.38;25.48;;;22.40;99.90;;;;;;5024037;28;20029;-65
2023/09/07 07:17:01;;;;;;;26.75;24.58;;;22.40;99.90;;;;;;5022197;28;20033;-63
2023/09/07 07:19:27;;;;;;;26.80;24.50;;;22.60;1.00;;;;;;5024335;28;20041;-64
2023/09/07 07:21:53;;;;;;;25.75;23.45;;;22.70;99.90;;;;;;5023798;28;20045;-65
2023/09/07 07:24:19;;;;;;;24.42;22.33;;;22.90;83.30;;;;;;5021194;28;20041;-66
2023/09/07 07:26:45;;;;;;;28.13;25.63;;;22.90;1.00;;;;;;5018399;28;20044;-63
2023/09/07 07:29:11;;;;;;;25.20;22.98;;;23.00;99.90;;;;;;5020221;28;20041;-63
2023/09/07 07:31:38;;;;;;;25.20;22.83;;;23.10;99.90;;;;;;5018270;28;20087;-63
2023/09/07 07:34:03;;;;;;;26.23;23.92;;;23.30;75.90;;;;;;5025649;28;20041;-65
2023/09/07 07:36:29;;;;;;;23.42;21.63;;;23.40;1.00;;;;;;5022712;28;20510;-66
2023/09/07 07:38:55;;;;;;;25.45;23.35;;;23.40;1.00;;;;;;5026023;28;20119;-65
2023/09/07 07:41:21;;;;;;;24.00;22.10;;;23.50;99.90;;;;;;5025434;28;20220;-64
2023/09/07 07:43:46;;;;;;;23.00;21.10;;;23.50;79.90;;;;;;5025454;28;20123;-63
2023/09/07 07:46:15;;;;;;;21.80;19.90;;;23.70;1.00;;;;;;5026864;28;20372;-66
2023/09/07 07:48:41;;;;;;;21.70;19.55;;;24.00;99.90;;;;;;5024662;28;20064;-65
2023/09/07 07:51:07;;;;;;;21.67;19.63;;;23.90;99.90;;;;;;5029408;28;20110;-65
2023/09/07 07:53:32;;;;;;;19.00;17.40;;;24.40;99.90;;;;;;5023383;28;20073;-65
2023/09/07 07:55:58;;;;;;;18.40;16.77;;;24.80;98.90;;;;;;5023745;28;20072;-65
2023/09/07 07:58:23;;;;;;;18.50;16.80;;;25.20;1.00;;;;;;5022391;28;20141;-66
2023/09/07 08:00:49;;;;;;;18.50;17.00;;;25.40;99.90;;;;;;5023458;28;20056;-65
2023/09/07 08:03:15;;;;;;;17.85;16.25;;;25.70;93.70;;;;;;5027214;28;20419;-64
2023/09/07 08:05:41;;;;;;;17.67;16.17;;;26.00;1.00;;;;;;5024602;28;20029;-64
2023/09/07 08:08:07;;;;;;;15.85;14.18;;;26.30;1.00;;;;;;5024767;28;20064;-65
2023/09/07 08:10:37;;;;;;;15.63;14.13;;;26.60;99.90;;;;;;5022687;28;20072;-65
2023/09/07 08:13:03;;;;;;;15.10;13.70;;;27.00;99.90;;;;;;5026536;28;20045;-65
2023/09/07 08:15:31;;;;;;;14.57;13.30;;;27.00;99.90;;;;;;5024337;28;20037;-65
2023/09/07 08:17:57;;;;;;;15.10;13.60;;;27.00;26.40;;;;;;5024182;28;20033;-65
2023/09/07 08:20:22;;;;;;;15.30;13.80;;;27.20;22.50;;;;;;5024571;28;20044;-65
2023/09/07 08:22:48;;;;;;;13.02;11.77;;;27.30;1.00;;;;;;5024521;28;20053;-65
2023/09/07 08:25:14;;;;;;;12.52;11.43;;;27.30;1.00;;;;;;5025172;28;20068;-65
2023/09/07 08:27:45;;;;;;;31.88;29.15;;;27.40;1.00;;;;;;5026030;28;20042;-65
2023/09/07 08:30:17;;;;;;;38.22;35.03;;;27.60;1.00;;;;;;5025527;28;20041;-65
2023/09/07 08:32:44;;;;;;;37.33;34.28;;;27.70;1.00;;;;;;5022771;28;20060;-65
2023/09/07 08:35:13;;;;;;;43.40;39.50;;;27.80;1.00;;;;;;5023827;28;20096;-65
2023/09/07 08:37:40;;;;;;;49.38;45.17;;;28.00;99.90;;;;;;5024204;28;20476;-65
2023/09/07 08:40:09;;;;;;;50.35;45.88;;;28.10;99.90;;;;;;5022240;28;20700;-65
2023/09/07 08:42:36;;;;;;;64.00;59.05;;;28.20;99.90;;;;;;5026724;28;20056;-64
2023/09/07 08:45:06;;;;;;;79.40;73.05;;;28.30;99.90;;;;;;5025359;28;20041;-66
2023/09/07 08:47:36;;;;;;;26.45;24.17;;;28.40;99.90;;;;;;5025796;28;20124;-65
2023/09/07 08:50:03;;;;;;;15.98;14.43;;;28.50;99.90;;;;;;5024599;28;20037;-65
2023/09/07 08:52:29;;;;;;;11.27;9.15;;;28.50;99.90;;;;;;5024406;28;20103;-65
2023/09/07 08:54:58;;;;;;;9.65;6.20;;;28.60;99.90;;;;;;5025493;28;20112;-65
2023/09/07 08:57:24;;;;;;;8.32;6.03;;;28.70;99.90;;;;;;5021124;28;20053;-65
2023/09/07 08:59:50;;;;;;;6.35;5.30;;;28.70;99.90;;;;;;5022655;28;20068;-66
2023/09/07 09:02:16;;;;;;;7.95;5.78;;;28.90;99.90;;;;;;5054904;28;20487;-65
2023/09/07 09:04:42;;;;;;;8.25;5.90;;;29.00;99.90;;;;;;5025226;28;20454;-63
2023/09/07 09:07:07;;;;;;;6.93;5.25;;;29.20;99.90;;;;;;5019958;28;20041;-62
2023/09/07 09:09:33;;;;;;;7.30;5.40;;;29.30;99.90;;;;;;5023765;28;20045;-63
2023/09/07 09:12:09;;;;;;;10.73;5.53;;;29.50;99.90;;;;;;5024373;28;20034;-63
2023/09/07 09:14:35;;;;;;;8.45;5.50;;;29.50;99.90;;;;;;5024760;28;20084;-59
2023/09/07 09:17:01;;;;;;;6.10;5.50;;;29.60;99.90;;;;;;5022208;28;20037;-60
2023/09/07 09:19:34;;;;;;;8.40;5.53;;;29.50;99.90;;;;;;5024507;28;20546;-58
2023/09/07 09:22:00;;;;;;;9.80;5.10;;;29.80;99.90;;;;;;5027749;28;20045;-59
2023/09/07 09:24:26;;;;;;;8.55;5.13;;;29.90;99.90;;;;;;5026395;28;20084;-60
2023/09/07 09:26:52;;;;;;;7.60;5.18;;;29.90;99.90;;;;;;5027398;28;20077;-59
2023/09/07 09:29:23;;;;;;;7.15;5.07;;;29.80;99.90;;;;;;5028114;28;20037;-60
2023/09/07 09:31:48;;;;;;;9.07;5.40;;;30.00;99.90;;;;;;5023871;28;20041;-61
2023/09/07 09:34:15;;;;;;;8.45;5.97;;;30.00;99.90;;;;;;5028039;28;20391;-59
2023/09/07 09:36:42;;;;;;;12.85;5.88;;;29.90;99.90;;;;;;5024525;28;20059;-59
2023/09/07 09:39:09;;;;;;;11.13;5.00;;;30.20;99.90;;;;;;5030228;28;20060;-61
2023/09/07 09:41:35;;;;;;;5.90;5.18;;;30.20;99.90;;;;;;5029330;28;20029;-59
2023/09/07 09:44:03;;;;;;;12.75;5.43;;;30.10;99.90;;;;;;5024673;28;20111;-62
2023/09/07 09:46:31;;;;;;;10.20;5.40;;;30.00;95.60;;;;;;5025814;28;20589;-61
2023/09/07 09:48:57;;;;;;;8.48;5.68;;;29.90;97.40;;;;;;5027859;28;20033;-66
2023/09/07 09:51:24;;;;;;;10.07;5.20;;;29.90;92.20;;;;;;5027864;28;20490;-62
2023/09/07 09:53:51;;;;;;;8.95;5.25;;;29.90;95.20;;;;;;5024279;28;20049;-62
2023/09/07 09:56:17;;;;;;;8.82;5.28;;;29.90;89.20;;;;;;5031569;28;20464;-62
2023/09/07 09:58:43;;;;;;;10.38;4.80;;;29.80;84.30;;;;;;5020110;28;20052;-61
2023/09/07 10:01:10;;;;;;;7.85;4.65;;;29.70;88.90;;;;;;5025158;28;20399;-62
2023/09/07 10:03:45;;;;;;;14.45;5.22;;;29.60;95.00;;;;;;5023934;28;20084;-63
2023/09/07 10:06:31;;;;;;;6.15;4.63;;;29.40;95.30;;;;;;5025357;28;20052;-63
2023/09/07 10:09:04;;;;;;;11.40;4.85;;;29.30;96.60;;;;;;5021937;28;20041;-63
2023/09/07 10:11:37;;;;;;;7.85;4.28;;;29.30;99.90;;;;;;5027260;28;20073;-61
2023/09/07 10:14:04;;;;;;;8.38;5.05;;;29.40;99.90;;;;;;5021366;28;20041;-61
2023/09/07 10:16:44;;;;;;;13.15;4.63;;;29.50;99.90;;;;;;5024116;28;20396;-61
2023/09/07 10:19:17;;;;;;;5.90;4.60;;;29.50;99.90;;;;;;5024380;28;20053;-61
2023/09/07 10:21:43;;;;;;;7.35;5.00;;;29.40;99.90;;;;;;5027504;28;20056;-61
2023/09/07 10:24:09;;;;;;;9.27;4.80;;;29.40;95.80;;;;;;5026212;28;20455;-65
2023/09/07 10:26:35;;;;;;;12.23;4.55;;;29.30;88.50;;;;;;5027448;28;20033;-65
2023/09/07 10:29:03;;;;;;;6.00;4.50;;;29.20;91.40;;;;;;5026826;28;20033;-64
2023/09/07 10:31:32;;;;;;;7.75;4.50;;;29.20;87.10;;;;;;5027937;28;20117;-64
2023/09/07 10:34:12;;;;;;;5.28;3.72;;;29.20;81.00;;;;;;5023204;28;20098;-64
2023/09/07 10:36:37;;;;;;;5.60;4.07;;;29.30;79.90;;;;;;5020876;28;20045;-64
2023/09/07 10:39:07;;;;;;;6.70;4.93;;;29.30;92.30;;;;;;5022223;28;20388;-64
2023/09/07 10:41:43;;;;;;;13.85;4.63;;;29.30;73.50;;;;;;5027309;28;20076;-64
2023/09/07 10:44:13;;;;;;;8.90;4.20;;;29.30;68.20;;;;;;5022953;28;20061;-64
2023/09/07 10:46:39;;;;;;;5.53;4.20;;;29.50;67.00;;;;;;5027808;28;20029;-64
2023/09/07 10:49:11;;;;;;;7.70;3.88;;;29.50;62.00;;;;;;5028946;28;20393;-64
2023/09/07 10:51:45;;;;;;;7.00;3.90;;;29.60;65.50;;;;;;5026515;28;20033;-64
2023/09/07 10:54:18;;;;;;;7.87;4.33;;;29.80;65.60;;;;;;5026922;28;20049;-64
2023/09/07 10:56:45;;;;;;;7.55;4.05;;;30.10;52.60;;;;;;5029361;28;20147;-64
2023/09/07 10:59:14;;;;;;;6.07;4.05;;;30.30;38.80;;;;;;5025689;28;20431;-64
2023/09/07 11:01:39;;;;;;;4.93;3.80;;;30.50;21.40;;;;;;5021365;28;20053;-64
2023/09/07 11:04:08;;;;;;;8.50;4.15;;;30.70;23.60;;;;;;5023115;28;20057;-64
2023/09/07 11:06:34;;;;;;;5.90;4.13;;;31.10;23.50;;;;;;5027700;28;20061;-64
2023/09/07 11:09:00;;;;;;;5.00;3.92;;;31.10;16.50;;;;;;5028002;28;20041;-64
2023/09/07 11:11:26;;;;;;;5.15;3.60;;;31.00;9.80;;;;;;5027987;28;20037;-64
2023/09/07 11:13:52;;;;;;;10.13;3.83;;;30.60;1.00;;;;;;5026576;28;20049;-64
2023/09/07 11:16:18;;;;;;;8.80;3.80;;;30.40;1.00;;;;;;5024965;28;20940;-64
2023/09/07 11:18:45;;;;;;;6.30;3.92;;;30.20;9.50;;;;;;5026184;28;20045;-64
2023/09/07 11:21:11;;;;;;;15.00;4.38;;;30.10;7.90;;;;;;5028741;28;20115;-64
2023/09/07 11:23:40;;;;;;;6.22;4.07;;;30.10;1.00;;;;;;5019357;28;20449;-64
2023/09/07 11:26:07;;;;;;;5.95;3.72;;;30.00;1.90;;;;;;5026942;28;20123;-64
2023/09/07 11:28:33;;;;;;;6.28;3.55;;;30.00;12.90;;;;;;5024824;28;20042;-64
2023/09/07 11:30:59;;;;;;;4.22;3.47;;;30.00;2.80;;;;;;5024926;28;20034;-64
2023/09/07 11:33:26;;;;;;;5.82;3.80;;;29.90;1.00;;;;;;5025765;28;20597;-62
2023/09/07 11:35:54;;;;;;;9.98;3.70;;;29.80;1.00;;;;;;5027766;28;20044;-62
2023/09/07 11:38:20;;;;;;;6.97;3.90;;;29.80;1.00;;;;;;5026996;28;20041;-62
2023/09/07 11:40:46;;;;;;;6.03;3.80;;;29.70;1.00;;;;;;5023843;28;20095;-63
2023/09/07 11:43:16;;;;;;;6.25;3.75;;;29.70;1.00;;;;;;5024819;28;20468;-62
2023/09/07 11:45:43;;;;;;;8.45;4.00;;;29.80;9.70;;;;;;5027468;28;20080;-62
2023/09/07 11:48:09;;;;;;;4.30;3.60;;;29.90;11.20;;;;;;5024872;28;20049;-63
2023/09/07 11:50:35;;;;;;;5.22;3.72;;;29.90;16.00;;;;;;5024991;28;20109;-62
2023/09/07 11:53:01;;;;;;;8.23;4.07;;;30.00;16.00;;;;;;5022767;28;20084;-62
2023/09/07 11:55:26;;;;;;;5.70;3.78;;;29.90;11.00;;;;;;5024996;28;20045;-62
2023/09/07 11:57:52;;;;;;;9.75;3.42;;;29.80;12.20;;;;;;5026192;28;20387;-62
2023/09/07 12:00:18;;;;;;;5.85;3.75;;;29.90;8.70;;;;;;5022800;28;20049;-62
2023/09/07 12:02:44;;;;;;;6.28;3.90;;;29.90;1.00;;;;;;5022383;28;20049;-60
2023/09/07 12:05:09;;;;;;;4.88;3.83;;;29.90;1.00;;;;;;5023733;28;20044;-59
2023/09/07 12:07:38;;;;;;;7.45;3.83;;;29.90;5.80;;;;;;5023243;28;20099;-60
2023/09/07 12:10:04;;;;;;;4.85;3.88;;;29.80;1.00;;;;;;5023732;28;20044;-60
2023/09/07 12:12:30;;;;;;;7.55;3.97;;;29.90;1.00;;;;;;5025681;28;20120;-60
2023/09/07 12:14:56;;;;;;;7.22;3.78;;;29.90;2.80;;;;;;5021233;28;20135;-60
2023/09/07 12:17:22;;;;;;;10.40;3.78;;;29.90;1.00;;;;;;5022258;28;20042;-60
2023/09/07 12:19:50;;;;;;;6.25;3.67;;;30.00;6.50;;;;;;5022639;28;20041;-60
2023/09/07 12:22:16;;;;;;;5.28;4.07;;;30.00;6.60;;;;;;5021571;28;20065;-60
2023/09/07 12:24:41;;;;;;;7.43;3.75;;;30.00;6.50;;;;;;5023515;28;20126;-60
2023/09/07 12:27:07;;;;;;;5.82;3.60;;;30.00;1.00;;;;;;5024275;28;20099;-60
2023/09/07 12:29:32;;;;;;;5.60;3.83;;;30.00;1.00;;;;;;5024872;28;20034;-60
2023/09/07 12:31:58;;;;;;;5.63;3.63;;;30.10;1.00;;;;;;5025536;28;20066;-60